VOML/IXE METAR and TAF weather

Enter ICAO airport designator
Station Type Date Time Source
VOML METAR 2020/07/15 01:00 UTC NOAA

VOML 150100Z 00000KT 4000 BR FEW004 SCT012 BKN080 24/23 Q1005 NOSIG


Station Type Date Time Source
VOML Decoded METAR 2020/07/15 01:00 UTC NOAA

Mangalore / Bajpe, India (VOML) 12-55N 074-53E 102M
Jul 14, 2020 - 09:00 PM EDT / 2020.07.15 0100 UTC
Wind: Calm:0
Visibility: 2 mile(s):0
Sky conditions: mostly cloudy
Weather: mist
Temperature: 75 F (24 C)
Dew Point: 73 F (23 C)
Relative Humidity: 94%
Pressure (altimeter): 29.68 in. Hg (1005 hPa)
ob: VOML 150100Z 00000KT 4000 BR FEW004 SCT012 BKN080 24/23 Q1005 NOSIG
cycle: 1

Station Type Date Time Source
VOML TAF 2020/07/14 18:00 UTC NOAA

TAF VOML 141700Z 1418/1524 VRB02KT 5000 ?DZ BR SCT008 SCT012 BKN080
BECMG 1420/1421 11005KT
TEMPO 1421/1503 3000 RA BR SCT005 SCT012 FEW025CB BKN080
BECMG 1506/1507 27010KT
TEMPO 1509/1515 3000 TSRA RA SCT005 SCT012 FEW025CB OVC080
BECMG 1518/1519 11005KT
TEMPO 1521/1524 4000 RA DZ SCT010 SCT012 OVC080

Example: see airport list